createdAt,value
2018-07-01T00:00:36.186Z,0.00
2018-07-01T00:01:36.214Z,0.00
2018-07-01T00:02:36.776Z,0.00
2018-07-01T00:03:36.282Z,0.00
2018-07-01T00:04:36.304Z,0.00
2018-07-01T00:05:57.389Z,0.00
2018-07-01T00:06:36.355Z,0.00
2018-07-01T00:07:36.379Z,0.00
2018-07-01T00:08:36.556Z,0.00
2018-07-01T00:09:36.436Z,0.00
2018-07-01T00:10:36.471Z,0.00
2018-07-01T00:11:57.516Z,0.00
2018-07-01T00:12:36.544Z,0.00
2018-07-01T00:13:36.593Z,0.00
2018-07-01T00:14:36.570Z,0.00
2018-07-01T00:15:36.601Z,0.00
2018-07-01T00:16:36.624Z,0.00
2018-07-01T00:17:57.684Z,0.00
2018-07-01T00:18:36.703Z,0.00
2018-07-01T00:19:36.811Z,0.00
2018-07-01T00:20:36.747Z,0.00
2018-07-01T00:21:36.829Z,0.00
2018-07-01T00:22:36.829Z,0.00
2018-07-01T00:23:58.152Z,0.00
2018-07-01T00:24:36.847Z,0.00
2018-07-01T00:25:36.894Z,0.00
2018-07-01T00:26:36.901Z,0.00
2018-07-01T00:27:37.457Z,0.00
2018-07-01T00:28:36.989Z,0.00
2018-07-01T00:29:58.082Z,0.00
2018-07-01T00:30:37.053Z,0.00
2018-07-01T00:31:37.035Z,0.00
2018-07-01T00:32:37.074Z,0.00
2018-07-01T00:33:37.103Z,0.00
2018-07-01T00:34:37.125Z,0.00
2018-07-01T00:35:58.168Z,0.00
2018-07-01T00:36:37.171Z,0.00
2018-07-01T00:37:37.328Z,0.00
2018-07-01T00:38:37.252Z,0.00
2018-07-01T00:39:37.354Z,0.00
2018-07-01T00:40:37.297Z,0.00
2018-07-01T00:41:58.337Z,0.00
2018-07-01T00:42:37.343Z,0.00
2018-07-01T00:43:37.390Z,0.00
2018-07-01T00:44:37.401Z,0.00
2018-07-01T00:45:37.435Z,0.00
2018-07-01T00:46:37.445Z,0.00
2018-07-01T00:47:58.535Z,0.00
2018-07-01T00:48:37.533Z,0.00
2018-07-01T00:49:37.538Z,0.00
2018-07-01T00:50:37.570Z,0.00
2018-07-01T00:51:37.582Z,0.00
2018-07-01T00:52:37.642Z,0.00
2018-07-01T00:53:58.671Z,0.00
2018-07-01T00:54:37.672Z,0.00
2018-07-01T00:55:37.711Z,0.00
2018-07-01T00:56:37.723Z,0.00
2018-07-01T00:57:37.768Z,0.00
2018-07-01T00:58:37.781Z,0.00
2018-07-01T00:59:58.913Z,0.00
2018-07-01T01:00:37.845Z,0.00
2018-07-01T01:01:37.900Z,0.00
2018-07-01T01:02:37.904Z,0.00
2018-07-01T01:03:37.915Z,0.00
2018-07-01T01:04:37.946Z,0.00
2018-07-01T01:05:58.987Z,0.00
2018-07-01T01:06:37.997Z,0.00
2018-07-01T01:07:38.040Z,0.00
2018-07-01T01:08:38.058Z,0.00
2018-07-01T01:09:38.088Z,0.00
2018-07-01T01:10:38.148Z,0.00
2018-07-01T01:11:59.162Z,0.00
2018-07-01T01:12:38.445Z,0.00
2018-07-01T01:13:38.198Z,0.00
2018-07-01T01:14:38.229Z,0.00
2018-07-01T01:15:38.256Z,0.00
2018-07-01T01:16:38.274Z,0.00
2018-07-01T01:17:59.335Z,0.00
2018-07-01T01:18:38.329Z,0.00
2018-07-01T01:19:38.362Z,0.00
2018-07-01T01:20:38.399Z,0.00
2018-07-01T01:21:38.528Z,0.00
2018-07-01T01:22:38.451Z,0.00
2018-07-01T01:23:59.493Z,0.00
2018-07-01T01:24:38.569Z,0.00
2018-07-01T01:25:38.520Z,0.00
2018-07-01T01:26:38.552Z,0.00
2018-07-01T01:27:38.620Z,0.00
2018-07-01T01:28:38.604Z,0.00
2018-07-01T01:29:59.658Z,0.00
2018-07-01T01:30:38.656Z,0.00
2018-07-01T01:31:38.685Z,0.00
2018-07-01T01:32:38.810Z,0.00
2018-07-01T01:33:38.739Z,0.00
2018-07-01T01:34:39.039Z,0.00
2018-07-01T01:35:59.828Z,0.00
2018-07-01T01:36:38.820Z,0.00
2018-07-01T01:37:38.855Z,0.00
2018-07-01T01:38:38.872Z,0.00
2018-07-01T01:39:38.913Z,0.00
2018-07-01T01:40:38.930Z,0.00
2018-07-01T01:41:59.990Z,0.00
2018-07-01T01:42:38.989Z,0.00
2018-07-01T01:43:39.017Z,0.00
2018-07-01T01:44:39.060Z,0.00
2018-07-01T01:45:39.083Z,0.00
2018-07-01T01:46:39.111Z,0.00
2018-07-01T01:48:00.139Z,0.00
2018-07-01T01:48:39.147Z,0.00
2018-07-01T01:49:39.187Z,0.00
2018-07-01T01:50:39.207Z,0.00
2018-07-01T01:51:39.241Z,0.00
2018-07-01T01:52:39.251Z,0.00
2018-07-01T01:54:00.450Z,0.00
2018-07-01T01:54:39.331Z,0.00
2018-07-01T01:55:39.369Z,0.00
2018-07-01T01:56:39.370Z,0.00
2018-07-01T01:57:40.361Z,0.00
2018-07-01T01:58:39.423Z,0.00
2018-07-01T02:00:00.469Z,0.00
2018-07-01T02:00:39.482Z,0.00
2018-07-01T02:01:39.515Z,0.00
2018-07-01T02:02:39.545Z,0.00
2018-07-01T02:03:39.562Z,0.00
2018-07-01T02:04:39.613Z,0.00
2018-07-01T02:06:00.647Z,0.00
2018-07-01T02:06:39.651Z,0.00
2018-07-01T02:07:39.850Z,0.00
2018-07-01T02:08:39.706Z,0.00
2018-07-01T02:09:39.743Z,0.00
2018-07-01T02:10:39.751Z,0.00
2018-07-01T02:12:00.892Z,0.00
2018-07-01T02:12:39.808Z,0.00
2018-07-01T02:13:39.842Z,0.00
2018-07-01T02:14:39.917Z,0.00
2018-07-01T02:15:39.888Z,0.00
2018-07-01T02:16:39.917Z,0.00
2018-07-01T02:18:00.968Z,0.00
2018-07-01T02:18:39.986Z,0.00
2018-07-01T02:19:39.993Z,0.00
2018-07-01T02:20:40.036Z,0.00
2018-07-01T02:21:40.047Z,4.00
2018-07-01T02:22:40.082Z,0.00
2018-07-01T02:24:01.148Z,0.00
2018-07-01T02:24:40.133Z,0.00
2018-07-01T02:25:40.227Z,0.00
2018-07-01T02:26:40.177Z,0.00
2018-07-01T02:27:40.249Z,4.00
2018-07-01T02:28:40.237Z,4.00
2018-07-01T02:30:01.295Z,0.00
2018-07-01T02:30:40.349Z,0.00
2018-07-01T02:31:40.317Z,4.00
2018-07-01T02:32:40.356Z,4.00
2018-07-01T02:33:40.368Z,4.00
2018-07-01T02:34:40.408Z,0.00
2018-07-01T02:36:01.444Z,4.00
2018-07-01T02:36:40.565Z,4.00
2018-07-01T02:37:40.497Z,8.00
2018-07-01T02:38:40.568Z,4.00
2018-07-01T02:39:40.543Z,4.00
2018-07-01T02:40:40.571Z,8.00
2018-07-01T02:42:01.617Z,4.00
2018-07-01T02:42:40.629Z,4.00
2018-07-01T02:43:40.643Z,8.00
2018-07-01T02:44:40.671Z,4.00
2018-07-01T02:45:40.706Z,8.00
2018-07-01T02:46:40.726Z,8.00
2018-07-01T02:48:01.857Z,8.00
2018-07-01T02:48:40.775Z,8.00
2018-07-01T02:49:40.816Z,12.00
2018-07-01T02:50:40.843Z,8.00
2018-07-01T02:51:40.867Z,12.00
2018-07-01T02:52:40.904Z,12.00
2018-07-01T02:54:01.953Z,12.00
2018-07-01T02:54:41.002Z,16.00
2018-07-01T02:55:40.984Z,16.00
2018-07-01T02:56:41.002Z,12.00
2018-07-01T02:57:41.042Z,16.00
2018-07-01T02:58:41.086Z,16.00
2018-07-01T03:00:02.108Z,16.00
2018-07-01T03:00:41.161Z,20.00
2018-07-01T03:01:41.142Z,20.00
2018-07-01T03:02:41.163Z,24.00
2018-07-01T03:03:41.280Z,24.00
2018-07-01T03:04:41.257Z,24.00
2018-07-01T03:06:02.258Z,28.00
2018-07-01T03:06:41.361Z,24.00
2018-07-01T03:07:41.295Z,28.00
2018-07-01T03:08:41.348Z,32.00
2018-07-01T03:09:41.372Z,28.00
2018-07-01T03:10:41.720Z,28.00
2018-07-01T03:12:03.616Z,32.00
2018-07-01T03:12:41.793Z,36.00
2018-07-01T03:13:41.749Z,36.00
2018-07-01T03:14:42.053Z,36.00
2018-07-01T03:15:41.566Z,40.00
2018-07-01T03:16:42.285Z,36.00
2018-07-01T03:18:02.842Z,40.00
2018-07-01T03:18:41.642Z,40.00
2018-07-01T03:19:41.640Z,44.00
2018-07-01T03:20:41.646Z,44.00
2018-07-01T03:21:41.668Z,48.00
2018-07-01T03:22:41.701Z,48.00
2018-07-01T03:24:02.762Z,48.00
2018-07-01T03:24:41.742Z,52.00
2018-07-01T03:25:41.787Z,52.00
2018-07-01T03:26:42.051Z,56.00
2018-07-01T03:27:41.840Z,60.00
2018-07-01T03:28:41.900Z,60.00
2018-07-01T03:30:02.911Z,64.00
2018-07-01T03:30:41.920Z,68.00
2018-07-01T03:31:41.934Z,68.00
2018-07-01T03:32:41.974Z,68.00
2018-07-01T03:33:42.018Z,68.00
2018-07-01T03:34:42.028Z,72.00
2018-07-01T03:36:03.081Z,72.00
2018-07-01T03:36:42.458Z,72.00
2018-07-01T03:37:42.112Z,76.00
2018-07-01T03:38:42.294Z,80.00
2018-07-01T03:39:42.158Z,80.00
2018-07-01T03:40:42.403Z,84.00
2018-07-01T03:42:03.234Z,84.00
2018-07-01T03:42:42.283Z,88.00
2018-07-01T03:43:42.258Z,88.00
2018-07-01T03:44:42.297Z,92.00
2018-07-01T03:45:42.321Z,92.00
2018-07-01T03:46:42.356Z,96.00
2018-07-01T03:48:03.392Z,100.00
2018-07-01T03:48:42.400Z,100.00
2018-07-01T03:49:43.021Z,100.00
2018-07-01T03:50:42.452Z,108.00
2018-07-01T03:51:42.485Z,112.00
2018-07-01T03:52:42.522Z,116.00
2018-07-01T03:54:03.568Z,120.00
2018-07-01T03:54:42.561Z,124.00
2018-07-01T03:55:42.592Z,132.00
2018-07-01T03:56:42.623Z,136.00
2018-07-01T03:57:42.682Z,144.00
2018-07-01T03:58:42.673Z,156.00
2018-07-01T04:00:03.719Z,160.00
2018-07-01T04:00:42.818Z,168.00
2018-07-01T04:01:42.772Z,176.00
2018-07-01T04:02:42.813Z,184.00
2018-07-01T04:03:42.810Z,192.00
2018-07-01T04:04:42.829Z,200.00
2018-07-01T04:06:03.883Z,204.00
2018-07-01T04:06:42.895Z,212.00
2018-07-01T04:07:42.936Z,212.00
2018-07-01T04:08:42.944Z,220.00
2018-07-01T04:09:42.963Z,228.00
2018-07-01T04:10:43.002Z,232.00
2018-07-01T04:12:04.039Z,236.00
2018-07-01T04:12:43.050Z,248.00
2018-07-01T04:13:43.096Z,252.00
2018-07-01T04:14:43.104Z,256.00
2018-07-01T04:15:43.133Z,256.00
2018-07-01T04:16:43.150Z,272.00
2018-07-01T04:18:04.213Z,276.00
2018-07-01T04:18:43.569Z,292.00
2018-07-01T04:19:43.236Z,304.00
2018-07-01T04:20:43.261Z,320.00
2018-07-01T04:21:43.285Z,328.00
2018-07-01T04:22:43.315Z,348.00
2018-07-01T04:24:04.439Z,376.00
2018-07-01T04:24:43.383Z,388.00
2018-07-01T04:25:43.419Z,388.00
2018-07-01T04:26:43.429Z,396.00
2018-07-01T04:27:43.461Z,412.00
2018-07-01T04:28:43.494Z,416.00
2018-07-01T04:30:04.523Z,424.00
2018-07-01T04:30:43.540Z,444.00
2018-07-01T04:31:43.566Z,444.00
2018-07-01T04:32:43.605Z,460.00
2018-07-01T04:33:43.614Z,476.00
2018-07-01T04:34:43.641Z,496.00
2018-07-01T04:36:04.695Z,512.00
2018-07-01T04:36:43.704Z,524.00
2018-07-01T04:37:43.736Z,532.00
2018-07-01T04:38:43.840Z,556.00
2018-07-01T04:39:43.779Z,568.00
2018-07-01T04:40:43.816Z,612.00
2018-07-01T04:42:04.953Z,640.00
2018-07-01T04:42:43.913Z,628.00
2018-07-01T04:43:43.882Z,620.00
2018-07-01T04:44:43.920Z,644.00
2018-07-01T04:45:43.945Z,660.00
2018-07-01T04:46:43.976Z,660.00
2018-07-01T04:48:05.039Z,700.00
2018-07-01T04:48:44.054Z,736.00
2018-07-01T04:49:44.062Z,748.00
2018-07-01T04:50:44.083Z,736.00
2018-07-01T04:51:44.113Z,760.00
2018-07-01T04:52:44.124Z,720.00
2018-07-01T04:54:05.194Z,820.00
2018-07-01T04:54:44.184Z,808.00
2018-07-01T04:55:44.274Z,832.00
2018-07-01T04:56:44.282Z,856.00
2018-07-01T04:57:44.282Z,876.00
2018-07-01T04:58:44.301Z,888.00
2018-07-01T05:00:05.351Z,1052.00
2018-07-01T05:00:44.353Z,912.00
2018-07-01T05:01:44.449Z,1036.00
2018-07-01T05:02:44.398Z,944.00
2018-07-01T05:03:44.438Z,1008.00
2018-07-01T05:04:44.579Z,964.00
2018-07-01T05:06:05.530Z,996.00
2018-07-01T05:06:44.557Z,1020.00
2018-07-01T05:07:44.537Z,1056.00
2018-07-01T05:08:44.572Z,1040.00
2018-07-01T05:09:44.589Z,976.00
2018-07-01T05:10:44.632Z,1072.00
2018-07-01T05:12:05.665Z,1412.00
2018-07-01T05:12:44.682Z,1156.00
2018-07-01T05:13:44.722Z,988.00
2018-07-01T05:14:44.729Z,1060.00
2018-07-01T05:15:44.909Z,880.00
2018-07-01T05:16:44.794Z,896.00
2018-07-01T05:18:05.839Z,864.00
2018-07-01T05:18:44.847Z,1176.00
2018-07-01T05:19:44.878Z,804.00
2018-07-01T05:20:44.900Z,852.00
2018-07-01T05:21:44.938Z,784.00
2018-07-01T05:22:44.968Z,740.00
2018-07-01T05:24:06.026Z,764.00
2018-07-01T05:24:45.010Z,768.00
2018-07-01T05:25:45.045Z,1032.00
2018-07-01T05:26:45.074Z,920.00
2018-07-01T05:27:45.103Z,832.00
2018-07-01T05:28:45.126Z,764.00
2018-07-01T05:30:06.169Z,756.00
2018-07-01T05:30:45.215Z,728.00
2018-07-01T05:31:45.224Z,744.00
2018-07-01T05:32:45.317Z,768.00
2018-07-01T05:33:45.272Z,708.00
2018-07-01T05:34:45.269Z,784.00
2018-07-01T05:36:06.344Z,748.00
2018-07-01T05:36:45.344Z,776.00
2018-07-01T05:37:45.362Z,740.00
2018-07-01T05:38:45.394Z,768.00
2018-07-01T05:39:45.413Z,748.00
2018-07-01T05:40:45.451Z,708.00
2018-07-01T05:42:06.980Z,744.00
2018-07-01T05:42:45.509Z,720.00
2018-07-01T05:43:45.539Z,724.00
2018-07-01T05:44:45.556Z,672.00
2018-07-01T05:45:45.591Z,732.00
2018-07-01T05:46:45.657Z,748.00
2018-07-01T05:48:06.665Z,664.00
2018-07-01T05:48:45.676Z,636.00
2018-07-01T05:49:45.701Z,728.00
2018-07-01T05:50:45.728Z,640.00
2018-07-01T05:51:45.923Z,680.00
2018-07-01T05:52:45.779Z,676.00
2018-07-01T05:54:06.841Z,732.00
2018-07-01T05:54:45.849Z,720.00
2018-07-01T05:55:45.898Z,828.00
2018-07-01T05:56:45.901Z,744.00
2018-07-01T05:57:45.919Z,684.00
2018-07-01T05:58:45.950Z,748.00
2018-07-01T06:00:06.991Z,676.00
2018-07-01T06:00:46.003Z,652.00
2018-07-01T06:01:46.021Z,760.00
2018-07-01T06:02:46.054Z,700.00
2018-07-01T06:03:46.079Z,772.00
2018-07-01T06:04:46.107Z,792.00
2018-07-01T06:06:07.166Z,756.00
2018-07-01T06:06:46.177Z,804.00
2018-07-01T06:07:46.194Z,788.00
2018-07-01T06:08:46.290Z,748.00
2018-07-01T06:09:46.277Z,800.00
2018-07-01T06:10:46.284Z,748.00
2018-07-01T06:12:07.324Z,720.00
2018-07-01T06:12:46.333Z,672.00
2018-07-01T06:13:46.371Z,728.00
2018-07-01T06:14:46.406Z,676.00
2018-07-01T06:15:46.421Z,728.00
2018-07-01T06:16:46.474Z,684.00
2018-07-01T06:18:07.487Z,640.00
2018-07-01T06:18:46.539Z,624.00
2018-07-01T06:19:47.066Z,672.00
2018-07-01T06:20:46.558Z,948.00
2018-07-01T06:21:46.603Z,644.00
2018-07-01T06:22:46.635Z,620.00
2018-07-01T06:24:07.664Z,920.00
2018-07-01T06:24:46.664Z,576.00
2018-07-01T06:25:46.704Z,576.00
2018-07-01T06:26:46.729Z,592.00
2018-07-01T06:27:46.746Z,584.00
2018-07-01T06:28:46.825Z,448.00
2018-07-01T06:30:07.821Z,600.00
2018-07-01T06:30:46.839Z,608.00
2018-07-01T06:31:46.861Z,600.00
2018-07-01T06:32:46.905Z,648.00
2018-07-01T06:33:46.920Z,240.00
2018-07-01T06:34:46.951Z,660.00
2018-07-01T06:36:07.985Z,724.00
2018-07-01T06:36:47.024Z,724.00
2018-07-01T06:37:47.023Z,724.00
2018-07-01T06:38:47.061Z,708.00
2018-07-01T06:39:47.094Z,704.00
2018-07-01T06:40:47.117Z,480.00
2018-07-01T06:42:08.153Z,552.00
2018-07-01T06:42:47.185Z,360.00
2018-07-01T06:43:48.060Z,320.00
2018-07-01T06:44:47.238Z,384.00
2018-07-01T06:45:47.246Z,384.00
2018-07-01T06:46:47.301Z,356.00
2018-07-01T06:48:08.349Z,348.00
2018-07-01T06:48:47.347Z,476.00
2018-07-01T06:49:47.369Z,440.00
2018-07-01T06:50:47.383Z,524.00
2018-07-01T06:51:47.424Z,548.00
2018-07-01T06:52:47.459Z,568.00
2018-07-01T06:54:08.499Z,572.00
2018-07-01T06:54:47.516Z,588.00
2018-07-01T06:55:47.557Z,592.00
2018-07-01T06:56:47.565Z,540.00
2018-07-01T06:57:47.602Z,520.00
2018-07-01T06:58:47.622Z,556.00
2018-07-01T07:00:08.667Z,524.00
2018-07-01T07:00:47.665Z,588.00
2018-07-01T07:01:47.706Z,600.00
2018-07-01T07:02:47.730Z,676.00
2018-07-01T07:03:47.746Z,712.00
2018-07-01T07:04:47.789Z,776.00
2018-07-01T07:06:08.831Z,860.00
2018-07-01T07:06:47.844Z,920.00
2018-07-01T07:07:47.876Z,844.00
2018-07-01T07:08:47.904Z,900.00
2018-07-01T07:09:47.931Z,1108.00
2018-07-01T07:10:47.948Z,1024.00
2018-07-01T07:12:09.612Z,712.00
2018-07-01T07:12:48.013Z,460.00
2018-07-01T07:13:48.030Z,1012.00
2018-07-01T07:14:48.047Z,308.00
2018-07-01T07:15:48.089Z,900.00
2018-07-01T07:16:48.130Z,316.00
2018-07-01T07:18:09.159Z,292.00
2018-07-01T07:18:48.235Z,932.00
2018-07-01T07:19:48.210Z,620.00
2018-07-01T07:20:48.222Z,1232.00
2018-07-01T07:21:48.276Z,1176.00
2018-07-01T07:22:48.271Z,1052.00
2018-07-01T07:24:09.337Z,1044.00
2018-07-01T07:24:48.340Z,976.00
2018-07-01T07:25:48.361Z,976.00
2018-07-01T07:26:48.387Z,880.00
2018-07-01T07:27:48.434Z,272.00
2018-07-01T07:28:48.445Z,336.00
2018-07-01T07:30:09.497Z,1088.00
2018-07-01T07:30:48.605Z,1084.00
2018-07-01T07:31:48.535Z,1052.00
2018-07-01T07:32:48.587Z,1068.00
2018-07-01T07:33:48.597Z,324.00
2018-07-01T07:34:48.627Z,1064.00
2018-07-01T07:36:09.684Z,940.00
2018-07-01T07:36:48.683Z,992.00
2018-07-01T07:37:48.710Z,1028.00
2018-07-01T07:38:48.725Z,696.00
2018-07-01T07:39:48.781Z,1080.00
2018-07-01T07:40:48.775Z,1124.00
2018-07-01T07:42:09.834Z,1152.00
2018-07-01T07:42:48.850Z,1176.00
2018-07-01T07:43:48.882Z,1084.00
2018-07-01T07:44:48.967Z,1100.00
2018-07-01T07:45:48.915Z,1208.00
2018-07-01T07:46:48.955Z,964.00
2018-07-01T07:48:10.011Z,592.00
2018-07-01T07:48:49.011Z,696.00
2018-07-01T07:49:49.036Z,1244.00
2018-07-01T07:50:49.059Z,1248.00
2018-07-01T07:51:49.085Z,1304.00
2018-07-01T07:52:49.123Z,620.00
2018-07-01T07:54:10.177Z,1372.00
2018-07-01T07:54:49.185Z,1368.00
2018-07-01T07:55:49.232Z,1052.00
2018-07-01T07:56:49.230Z,600.00
2018-07-01T07:57:49.256Z,1368.00
2018-07-01T07:58:49.284Z,1476.00
2018-07-01T08:00:10.331Z,1384.00
2018-07-01T08:00:49.348Z,1360.00
2018-07-01T08:01:49.375Z,1476.00
2018-07-01T08:02:49.395Z,1472.00
2018-07-01T08:03:49.424Z,1508.00
2018-07-01T08:04:49.452Z,1332.00
2018-07-01T08:06:10.511Z,1188.00
2018-07-01T08:06:49.507Z,1228.00
2018-07-01T08:07:49.538Z,1204.00
2018-07-01T08:08:49.574Z,1156.00
2018-07-01T08:09:49.608Z,1240.00
2018-07-01T08:10:49.633Z,1308.00
2018-07-01T08:12:11.627Z,1312.00
2018-07-01T08:12:49.702Z,1092.00
2018-07-01T08:13:49.800Z,1196.00
2018-07-01T08:14:49.787Z,1236.00
2018-07-01T08:15:49.774Z,1116.00
2018-07-01T08:16:49.795Z,1160.00
2018-07-01T08:18:10.848Z,1320.00
2018-07-01T08:18:49.860Z,1140.00
2018-07-01T08:19:49.876Z,1436.00
2018-07-01T08:20:50.059Z,1552.00
2018-07-01T08:21:49.985Z,1348.00
2018-07-01T08:22:49.965Z,1596.00
2018-07-01T08:24:11.064Z,1672.00
2018-07-01T08:24:50.027Z,1676.00
2018-07-01T08:25:50.047Z,1844.00
2018-07-01T08:26:50.081Z,1260.00
2018-07-01T08:27:50.106Z,1264.00
2018-07-01T08:28:50.140Z,1076.00
2018-07-01T08:30:11.188Z,440.00
2018-07-01T08:30:50.209Z,484.00
2018-07-01T08:31:50.214Z,472.00
2018-07-01T08:32:51.096Z,448.00
2018-07-01T08:33:50.282Z,476.00
2018-07-01T08:34:50.328Z,500.00
2018-07-01T08:36:11.358Z,556.00
2018-07-01T08:36:50.386Z,1368.00
2018-07-01T08:37:50.412Z,1328.00
2018-07-01T08:38:50.414Z,1412.00
2018-07-01T08:39:50.445Z,1404.00
2018-07-01T08:40:50.491Z,1260.00
2018-07-01T08:42:11.537Z,1152.00
2018-07-01T08:42:50.540Z,1084.00
2018-07-01T08:43:51.101Z,1124.00
2018-07-01T08:44:50.609Z,388.00
2018-07-01T08:45:50.619Z,424.00
2018-07-01T08:46:50.648Z,452.00
2018-07-01T08:48:11.719Z,500.00
2018-07-01T08:48:50.725Z,564.00
2018-07-01T08:49:50.730Z,1420.00
2018-07-01T08:50:50.774Z,580.00
2018-07-01T08:51:50.794Z,592.00
2018-07-01T08:52:50.944Z,624.00
2018-07-01T08:54:11.896Z,656.00
2018-07-01T08:54:50.896Z,1348.00
2018-07-01T08:55:50.929Z,836.00
2018-07-01T08:56:50.935Z,868.00
2018-07-01T08:57:50.962Z,552.00
2018-07-01T08:58:50.992Z,580.00
2018-07-01T09:00:12.052Z,404.00
2018-07-01T09:00:51.062Z,396.00
2018-07-01T09:01:51.076Z,1224.00
2018-07-01T09:02:51.112Z,1228.00
2018-07-01T09:03:51.153Z,1272.00
2018-07-01T09:04:51.163Z,1240.00
2018-07-01T09:06:12.204Z,1132.00
2018-07-01T09:06:51.227Z,1072.00
2018-07-01T09:07:51.265Z,1220.00
2018-07-01T09:08:51.373Z,1236.00
2018-07-01T09:09:51.306Z,1264.00
2018-07-01T09:10:51.336Z,1408.00
2018-07-01T09:12:12.382Z,1492.00
2018-07-01T09:12:51.409Z,1396.00
2018-07-01T09:13:51.427Z,1332.00
2018-07-01T09:14:51.464Z,1436.00
2018-07-01T09:15:51.470Z,1484.00
2018-07-01T09:16:51.529Z,1664.00
2018-07-01T09:18:12.564Z,1392.00
2018-07-01T09:18:51.580Z,1568.00
2018-07-01T09:19:51.593Z,1276.00
2018-07-01T09:20:51.621Z,1664.00
2018-07-01T09:21:51.656Z,1676.00
2018-07-01T09:22:51.674Z,1512.00
2018-07-01T09:24:12.725Z,700.00
2018-07-01T09:24:51.739Z,1684.00
2018-07-01T09:25:51.776Z,2096.00
2018-07-01T09:26:51.803Z,912.00
2018-07-01T09:27:51.830Z,1376.00
2018-07-01T09:28:51.914Z,796.00
2018-07-01T09:30:12.901Z,2060.00
2018-07-01T09:30:51.918Z,2144.00
2018-07-01T09:31:51.956Z,2280.00
2018-07-01T09:32:51.977Z,2144.00
2018-07-01T09:33:52.001Z,2116.00
2018-07-01T09:34:52.039Z,2140.00
2018-07-01T09:36:13.149Z,2140.00
2018-07-01T09:36:52.084Z,2080.00
2018-07-01T09:37:52.132Z,1992.00
2018-07-01T09:38:52.166Z,1804.00
2018-07-01T09:39:52.165Z,2136.00
2018-07-01T09:40:52.198Z,1892.00
2018-07-01T09:42:13.253Z,2276.00
2018-07-01T09:42:52.311Z,2328.00
2018-07-01T09:43:52.300Z,1824.00
2018-07-01T09:44:52.326Z,2192.00
2018-07-01T09:45:52.414Z,2040.00
2018-07-01T09:46:52.369Z,3608.00
2018-07-01T09:48:13.415Z,2180.00
2018-07-01T09:48:52.438Z,2476.00
2018-07-01T09:49:52.474Z,2624.00
2018-07-01T09:50:52.487Z,2888.00
2018-07-01T09:51:52.553Z,2472.00
2018-07-01T09:52:52.565Z,2572.00
2018-07-01T09:54:13.591Z,872.00
2018-07-01T09:54:52.750Z,756.00
2018-07-01T09:55:52.935Z,720.00
2018-07-01T09:56:52.735Z,636.00
2018-07-01T09:57:52.704Z,1032.00
2018-07-01T09:58:52.725Z,2404.00
2018-07-01T10:00:13.804Z,2252.00
2018-07-01T10:00:52.780Z,5464.00
2018-07-01T10:01:52.809Z,3892.00
2018-07-01T10:02:52.851Z,4224.00
2018-07-01T10:03:52.876Z,6988.00
2018-07-01T10:04:52.902Z,7408.00
2018-07-01T10:06:13.965Z,7396.00
2018-07-01T10:06:52.961Z,5956.00
2018-07-01T10:07:53.028Z,8380.00
2018-07-01T10:08:53.077Z,8472.00
2018-07-01T10:09:53.045Z,8468.00
2018-07-01T10:10:53.074Z,1060.00
2018-07-01T10:12:14.132Z,928.00
2018-07-01T10:12:53.131Z,7092.00
2018-07-01T10:13:53.168Z,8252.00
2018-07-01T10:14:53.214Z,8332.00
2018-07-01T10:15:53.218Z,2016.00
2018-07-01T10:16:53.268Z,800.00
2018-07-01T10:18:14.314Z,988.00
2018-07-01T10:18:53.345Z,1012.00
2018-07-01T10:19:53.351Z,792.00
2018-07-01T10:20:53.370Z,1536.00
2018-07-01T10:21:53.400Z,8792.00
2018-07-01T10:22:53.441Z,9356.00
2018-07-01T10:24:14.493Z,9072.00
2018-07-01T10:24:53.484Z,9220.00
2018-07-01T10:25:53.517Z,8492.00
2018-07-01T10:26:53.559Z,3988.00
2018-07-01T10:27:53.600Z,928.00
2018-07-01T10:28:53.616Z,1396.00
2018-07-01T10:30:14.665Z,7388.00
2018-07-01T10:30:53.677Z,1044.00
2018-07-01T10:31:53.706Z,2828.00
2018-07-01T10:32:53.737Z,4260.00
2018-07-01T10:33:53.767Z,9140.00
2018-07-01T10:34:53.794Z,2948.00
2018-07-01T10:36:14.906Z,1412.00
2018-07-01T10:36:53.848Z,1300.00
2018-07-01T10:37:53.878Z,1312.00
2018-07-01T10:38:53.922Z,2324.00
2018-07-01T10:39:53.942Z,9780.00
2018-07-01T10:40:53.976Z,9660.00
2018-07-01T10:42:15.051Z,9644.00
2018-07-01T10:42:54.040Z,6760.00
2018-07-01T10:43:54.091Z,9652.00
2018-07-01T10:44:54.090Z,5332.00
2018-07-01T10:45:54.246Z,3136.00
2018-07-01T10:46:54.246Z,3628.00
2018-07-01T10:48:15.206Z,1288.00
2018-07-01T10:48:54.245Z,1712.00
2018-07-01T10:49:54.243Z,1040.00
2018-07-01T10:50:54.272Z,1000.00
2018-07-01T10:51:54.333Z,2172.00
2018-07-01T10:52:54.338Z,5864.00
2018-07-01T10:54:15.386Z,1628.00
2018-07-01T10:54:54.506Z,1104.00
2018-07-01T10:55:54.419Z,3024.00
2018-07-01T10:56:54.565Z,1452.00
2018-07-01T10:57:54.484Z,1056.00
2018-07-01T10:58:54.529Z,1204.00
2018-07-01T11:00:15.599Z,11620.00
2018-07-01T11:00:54.574Z,9540.00
2018-07-01T11:01:54.617Z,1912.00
2018-07-01T11:02:54.647Z,8096.00
2018-07-01T11:03:54.690Z,2028.00
2018-07-01T11:04:54.718Z,6488.00
2018-07-01T11:06:16.002Z,12324.00
2018-07-01T11:06:54.775Z,2284.00
2018-07-01T11:07:54.801Z,2056.00
2018-07-01T11:08:54.851Z,13444.00
2018-07-01T11:09:54.859Z,13060.00
2018-07-01T11:10:54.889Z,13296.00
2018-07-01T11:12:15.948Z,13028.00
2018-07-01T11:12:54.955Z,1652.00
2018-07-01T11:13:54.984Z,1424.00
2018-07-01T11:14:55.031Z,3160.00
2018-07-01T11:15:55.059Z,26016.00
2018-07-01T11:16:55.084Z,37376.00
2018-07-01T11:18:16.132Z,20928.00
2018-07-01T11:18:55.143Z,9060.00
2018-07-01T11:19:55.174Z,4072.00
2018-07-01T11:20:55.197Z,1728.00
2018-07-01T11:21:55.234Z,1840.00
2018-07-01T11:22:55.275Z,1852.00
2018-07-01T11:24:16.384Z,2104.00
2018-07-01T11:24:55.352Z,1348.00
2018-07-01T11:25:55.381Z,1504.00
2018-07-01T11:26:55.581Z,1964.00
2018-07-01T11:27:55.513Z,1712.00
2018-07-01T11:28:55.468Z,1620.00
2018-07-01T11:30:16.523Z,1688.00
2018-07-01T11:30:55.532Z,1596.00
2018-07-01T11:31:55.548Z,1584.00
2018-07-01T11:32:55.599Z,1752.00
2018-07-01T11:33:55.636Z,1444.00
2018-07-01T11:34:55.689Z,1180.00
2018-07-01T11:36:16.715Z,1152.00
2018-07-01T11:36:55.724Z,1100.00
2018-07-01T11:37:55.752Z,1228.00
2018-07-01T11:38:55.778Z,1208.00
2018-07-01T11:39:55.815Z,1136.00
2018-07-01T11:40:55.847Z,1052.00
2018-07-01T11:42:16.884Z,1096.00
2018-07-01T11:42:55.916Z,1192.00
2018-07-01T11:43:55.929Z,1272.00
2018-07-01T11:44:55.975Z,1288.00
2018-07-01T11:45:55.987Z,1156.00
2018-07-01T11:46:56.037Z,1028.00
2018-07-01T11:48:17.087Z,984.00
2018-07-01T11:48:56.102Z,1012.00
2018-07-01T11:49:56.132Z,1060.00
2018-07-01T11:50:56.151Z,1060.00
2018-07-01T11:51:56.180Z,1012.00
2018-07-01T11:52:56.232Z,1020.00
2018-07-01T11:54:17.321Z,932.00
2018-07-01T11:54:56.385Z,884.00
2018-07-01T11:55:56.325Z,820.00
2018-07-01T11:56:56.333Z,640.00
2018-07-01T11:57:56.354Z,520.00
2018-07-01T11:58:56.404Z,456.00
2018-07-01T12:00:17.524Z,452.00
2018-07-01T12:00:56.461Z,480.00
2018-07-01T12:01:56.579Z,584.00
2018-07-01T12:02:56.525Z,612.00
2018-07-01T12:03:56.565Z,552.00
2018-07-01T12:05:16.205Z,504.00
2018-07-01T12:06:17.641Z,528.00
2018-07-01T12:06:56.658Z,564.00
2018-07-01T12:07:56.664Z,556.00
2018-07-01T12:08:56.725Z,620.00
2018-07-01T12:09:56.718Z,772.00
2018-07-01T12:10:56.757Z,868.00
2018-07-01T12:12:17.829Z,988.00
2018-07-01T12:12:56.843Z,896.00
2018-07-01T12:13:56.884Z,776.00
2018-07-01T12:14:56.929Z,832.00
2018-07-01T12:15:56.938Z,744.00
2018-07-01T12:16:56.935Z,732.00
2018-07-01T12:18:17.990Z,712.00
2018-07-01T12:18:57.000Z,588.00
2018-07-01T12:19:57.038Z,568.00
2018-07-01T12:20:57.072Z,444.00
2018-07-01T12:21:57.116Z,436.00
2018-07-01T12:22:57.119Z,412.00
2018-07-01T12:24:18.169Z,404.00
2018-07-01T12:24:57.174Z,420.00
2018-07-01T12:25:57.222Z,424.00
2018-07-01T12:26:57.245Z,432.00
2018-07-01T12:27:57.296Z,432.00
2018-07-01T12:28:57.345Z,472.00
2018-07-01T12:30:18.359Z,496.00
2018-07-01T12:30:57.424Z,428.00
2018-07-01T12:31:57.391Z,592.00
2018-07-01T12:32:57.421Z,580.00
2018-07-01T12:33:57.614Z,600.00